sensor_id;sensor_type;location;lat;lon;timestamp;temperature;humidity
1786;DHT22;890;48.158;11.540;2023-06-14T00:01:20;18.00;40.30
1786;DHT22;890;48.158;11.540;2023-06-14T00:03:47;18.00;40.40
1786;DHT22;890;48.158;11.540;2023-06-14T00:06:13;17.90;40.40
1786;DHT22;890;48.158;11.540;2023-06-14T00:08:39;17.90;40.40
1786;DHT22;890;48.158;11.540;2023-06-14T00:11:06;18.00;40.50
1786;DHT22;890;48.158;11.540;2023-06-14T00:13:31;17.90;40.50
1786;DHT22;890;48.158;11.540;2023-06-14T00:15:57;17.90;40.60
1786;DHT22;890;48.158;11.540;2023-06-14T00:18:23;17.90;40.70
1786;DHT22;890;48.158;11.540;2023-06-14T00:20:55;17.90;40.90
1786;DHT22;890;48.158;11.540;2023-06-14T00:23:21;17.80;41.50
1786;DHT22;890;48.158;11.540;2023-06-14T00:25:47;17.80;41.10
1786;DHT22;890;48.158;11.540;2023-06-14T00:28:13;17.80;41.20
1786;DHT22;890;48.158;11.540;2023-06-14T00:30:39;17.70;41.20
1786;DHT22;890;48.158;11.540;2023-06-14T00:33:05;17.70;41.20
1786;DHT22;890;48.158;11.540;2023-06-14T00:35:30;17.70;41.40
1786;DHT22;890;48.158;11.540;2023-06-14T00:37:56;17.60;41.40
1786;DHT22;890;48.158;11.540;2023-06-14T00:40:22;17.60;41.50
1786;DHT22;890;48.158;11.540;2023-06-14T00:42:48;17.60;41.50
1786;DHT22;890;48.158;11.540;2023-06-14T00:45:13;17.50;41.50
1786;DHT22;890;48.158;11.540;2023-06-14T00:47:41;17.40;41.50
1786;DHT22;890;48.158;11.540;2023-06-14T00:50:07;17.50;41.80
1786;DHT22;890;48.158;11.540;2023-06-14T00:52:33;17.40;41.80
1786;DHT22;890;48.158;11.540;2023-06-14T00:55:00;17.40;41.80
1786;DHT22;890;48.158;11.540;2023-06-14T00:57:26;17.40;41.80
1786;DHT22;890;48.158;11.540;2023-06-14T00:59:52;17.40;41.90
1786;DHT22;890;48.158;11.540;2023-06-14T01:02:18;17.40;41.90
1786;DHT22;890;48.158;11.540;2023-06-14T01:04:46;17.40;42.00
1786;DHT22;890;48.158;11.540;2023-06-14T01:07:41;17.30;42.00
1786;DHT22;890;48.158;11.540;2023-06-14T01:13:20;17.30;42.50
1786;DHT22;890;48.158;11.540;2023-06-14T01:15:47;17.20;42.40
1786;DHT22;890;48.158;11.540;2023-06-14T01:18:13;17.30;42.30
1786;DHT22;890;48.158;11.540;2023-06-14T01:20:46;17.20;42.30
1786;DHT22;890;48.158;11.540;2023-06-14T01:23:19;17.10;42.40
1786;DHT22;890;48.158;11.540;2023-06-14T01:25:45;17.20;42.60
1786;DHT22;890;48.158;11.540;2023-06-14T01:28:13;17.20;42.60
1786;DHT22;890;48.158;11.540;2023-06-14T01:30:43;17.10;42.70
1786;DHT22;890;48.158;11.540;2023-06-14T01:33:17;17.10;42.90
1786;DHT22;890;48.158;11.540;2023-06-14T01:35:46;17.10;42.90
1786;DHT22;890;48.158;11.540;2023-06-14T01:38:13;17.10;43.10
1786;DHT22;890;48.158;11.540;2023-06-14T01:40:40;17.00;43.10
1786;DHT22;890;48.158;11.540;2023-06-14T01:43:08;17.00;43.30
1786;DHT22;890;48.158;11.540;2023-06-14T01:45:35;17.00;43.30
1786;DHT22;890;48.158;11.540;2023-06-14T01:48:02;16.90;43.30
1786;DHT22;890;48.158;11.540;2023-06-14T01:50:29;16.90;43.40
1786;DHT22;890;48.158;11.540;2023-06-14T01:52:55;16.90;43.50
1786;DHT22;890;48.158;11.540;2023-06-14T01:55:21;16.90;43.60
1786;DHT22;890;48.158;11.540;2023-06-14T01:57:47;16.80;43.60
1786;DHT22;890;48.158;11.540;2023-06-14T02:00:14;16.80;43.80
1786;DHT22;890;48.158;11.540;2023-06-14T02:02:40;16.80;44.00
1786;DHT22;890;48.158;11.540;2023-06-14T02:05:06;16.70;44.00
1786;DHT22;890;48.158;11.540;2023-06-14T02:07:31;16.80;44.10
1786;DHT22;890;48.158;11.540;2023-06-14T02:09:57;16.80;44.20
1786;DHT22;890;48.158;11.540;2023-06-14T02:12:23;16.80;44.80
1786;DHT22;890;48.158;11.540;2023-06-14T02:14:48;16.70;44.80
1786;DHT22;890;48.158;11.540;2023-06-14T02:17:14;16.70;44.40
1786;DHT22;890;48.158;11.540;2023-06-14T02:19:40;16.70;44.50
1786;DHT22;890;48.158;11.540;2023-06-14T02:22:06;16.70;44.60
1786;DHT22;890;48.158;11.540;2023-06-14T02:24:32;16.70;44.70
1786;DHT22;890;48.158;11.540;2023-06-14T02:26:57;16.60;44.70
1786;DHT22;890;48.158;11.540;2023-06-14T02:29:23;16.60;44.70
1786;DHT22;890;48.158;11.540;2023-06-14T02:31:48;16.60;44.80
1786;DHT22;890;48.158;11.540;2023-06-14T02:34:15;16.70;45.00
1786;DHT22;890;48.158;11.540;2023-06-14T02:36:42;16.50;45.00
1786;DHT22;890;48.158;11.540;2023-06-14T02:39:08;16.50;44.90
1786;DHT22;890;48.158;11.540;2023-06-14T02:41:35;16.40;44.90
1786;DHT22;890;48.158;11.540;2023-06-14T02:44:00;16.40;45.00
1786;DHT22;890;48.158;11.540;2023-06-14T02:46:26;16.50;45.20
1786;DHT22;890;48.158;11.540;2023-06-14T02:48:51;16.30;45.20
1786;DHT22;890;48.158;11.540;2023-06-14T02:51:17;16.30;45.30
1786;DHT22;890;48.158;11.540;2023-06-14T02:53:42;16.20;45.30
1786;DHT22;890;48.158;11.540;2023-06-14T02:56:09;16.20;46.00
1786;DHT22;890;48.158;11.540;2023-06-14T02:58:36;16.20;45.70
1786;DHT22;890;48.158;11.540;2023-06-14T03:01:02;16.20;46.10
1786;DHT22;890;48.158;11.540;2023-06-14T03:03:28;16.10;46.30
1786;DHT22;890;48.158;11.540;2023-06-14T03:05:54;16.10;46.60
1786;DHT22;890;48.158;11.540;2023-06-14T03:08:19;16.00;46.80
1786;DHT22;890;48.158;11.540;2023-06-14T03:10:46;16.00;47.00
1786;DHT22;890;48.158;11.540;2023-06-14T03:13:12;15.90;47.00
1786;DHT22;890;48.158;11.540;2023-06-14T03:15:38;15.90;47.40
1786;DHT22;890;48.158;11.540;2023-06-14T03:18:04;15.80;47.60
1786;DHT22;890;48.158;11.540;2023-06-14T03:20:30;15.80;47.80
1786;DHT22;890;48.158;11.540;2023-06-14T03:22:59;15.80;47.90
1786;DHT22;890;48.158;11.540;2023-06-14T03:25:25;15.70;48.00
1786;DHT22;890;48.158;11.540;2023-06-14T03:27:51;15.70;48.10
1786;DHT22;890;48.158;11.540;2023-06-14T03:30:17;15.70;48.10
1786;DHT22;890;48.158;11.540;2023-06-14T03:32:42;15.80;48.30
1786;DHT22;890;48.158;11.540;2023-06-14T03:35:08;15.80;48.10
1786;DHT22;890;48.158;11.540;2023-06-14T03:37:34;15.80;48.10
1786;DHT22;890;48.158;11.540;2023-06-14T03:40:00;15.80;48.10
1786;DHT22;890;48.158;11.540;2023-06-14T03:42:26;15.80;48.20
1786;DHT22;890;48.158;11.540;2023-06-14T03:44:51;15.80;48.20
1786;DHT22;890;48.158;11.540;2023-06-14T03:47:17;15.80;48.30
1786;DHT22;890;48.158;11.540;2023-06-14T03:49:42;15.80;48.30
1786;DHT22;890;48.158;11.540;2023-06-14T03:52:08;15.90;48.50
1786;DHT22;890;48.158;11.540;2023-06-14T03:54:34;16.00;48.70
1786;DHT22;890;48.158;11.540;2023-06-14T03:56:59;15.80;48.60
1786;DHT22;890;48.158;11.540;2023-06-14T03:59:25;15.90;48.60
1786;DHT22;890;48.158;11.540;2023-06-14T04:01:51;15.90;48.70
1786;DHT22;890;48.158;11.540;2023-06-14T04:04:17;15.90;48.70
1786;DHT22;890;48.158;11.540;2023-06-14T04:06:43;15.90;48.70
1786;DHT22;890;48.158;11.540;2023-06-14T04:09:09;15.90;48.70
1786;DHT22;890;48.158;11.540;2023-06-14T04:11:34;15.80;48.60
1786;DHT22;890;48.158;11.540;2023-06-14T04:14:02;15.90;48.90
1786;DHT22;890;48.158;11.540;2023-06-14T04:16:27;15.80;48.90
1786;DHT22;890;48.158;11.540;2023-06-14T04:18:54;15.70;48.90
1786;DHT22;890;48.158;11.540;2023-06-14T04:21:20;15.70;49.10
1786;DHT22;890;48.158;11.540;2023-06-14T04:23:46;15.80;49.10
1786;DHT22;890;48.158;11.540;2023-06-14T04:26:12;15.70;49.10
1786;DHT22;890;48.158;11.540;2023-06-14T04:28:37;15.80;49.20
1786;DHT22;890;48.158;11.540;2023-06-14T04:31:09;15.80;49.20
1786;DHT22;890;48.158;11.540;2023-06-14T04:33:38;15.90;49.30
1786;DHT22;890;48.158;11.540;2023-06-14T04:36:12;15.90;49.40
1786;DHT22;890;48.158;11.540;2023-06-14T04:38:39;16.00;49.40
1786;DHT22;890;48.158;11.540;2023-06-14T04:41:06;16.00;49.30
1786;DHT22;890;48.158;11.540;2023-06-14T04:43:32;16.00;49.20
1786;DHT22;890;48.158;11.540;2023-06-14T04:46:04;16.10;49.20
1786;DHT22;890;48.158;11.540;2023-06-14T04:48:31;16.10;49.10
1786;DHT22;890;48.158;11.540;2023-06-14T04:50:57;16.10;49.10
1786;DHT22;890;48.158;11.540;2023-06-14T04:53:23;16.20;49.20
1786;DHT22;890;48.158;11.540;2023-06-14T04:55:49;16.20;49.70
1786;DHT22;890;48.158;11.540;2023-06-14T04:58:16;16.20;49.00
1786;DHT22;890;48.158;11.540;2023-06-14T05:00:41;16.30;49.20
1786;DHT22;890;48.158;11.540;2023-06-14T05:03:09;16.40;49.30
1786;DHT22;890;48.158;11.540;2023-06-14T05:05:34;16.40;49.30
1786;DHT22;890;48.158;11.540;2023-06-14T05:08:00;16.50;49.20
1786;DHT22;890;48.158;11.540;2023-06-14T05:10:25;16.60;49.10
1786;DHT22;890;48.158;11.540;2023-06-14T05:12:51;16.60;49.20
1786;DHT22;890;48.158;11.540;2023-06-14T05:15:18;16.70;49.80
1786;DHT22;890;48.158;11.540;2023-06-14T05:17:46;16.80;49.30
1786;DHT22;890;48.158;11.540;2023-06-14T05:20:18;16.80;49.30
1786;DHT22;890;48.158;11.540;2023-06-14T05:22:44;17.00;49.40
1786;DHT22;890;48.158;11.540;2023-06-14T05:25:09;17.10;49.50
1786;DHT22;890;48.158;11.540;2023-06-14T05:27:38;17.20;49.50
1786;DHT22;890;48.158;11.540;2023-06-14T05:30:06;17.30;49.60
1786;DHT22;890;48.158;11.540;2023-06-14T05:32:32;17.40;49.50
1786;DHT22;890;48.158;11.540;2023-06-14T05:34:58;17.40;49.40
1786;DHT22;890;48.158;11.540;2023-06-14T05:37:23;17.50;49.30
1786;DHT22;890;48.158;11.540;2023-06-14T05:39:49;17.60;49.40
1786;DHT22;890;48.158;11.540;2023-06-14T05:42:14;17.70;49.40
1786;DHT22;890;48.158;11.540;2023-06-14T05:44:40;17.80;49.50
1786;DHT22;890;48.158;11.540;2023-06-14T05:47:06;17.90;49.30
1786;DHT22;890;48.158;11.540;2023-06-14T05:49:31;18.00;49.10
1786;DHT22;890;48.158;11.540;2023-06-14T05:51:57;18.00;49.00
1786;DHT22;890;48.158;11.540;2023-06-14T05:54:22;18.00;48.90
1786;DHT22;890;48.158;11.540;2023-06-14T05:56:48;18.10;49.00
1786;DHT22;890;48.158;11.540;2023-06-14T05:59:13;18.10;48.90
1786;DHT22;890;48.158;11.540;2023-06-14T06:01:39;18.10;49.00
1786;DHT22;890;48.158;11.540;2023-06-14T06:04:05;18.10;48.90
1786;DHT22;890;48.158;11.540;2023-06-14T06:06:31;18.30;49.00
1786;DHT22;890;48.158;11.540;2023-06-14T06:08:58;18.20;48.80
1786;DHT22;890;48.158;11.540;2023-06-14T06:11:24;18.30;48.80
1786;DHT22;890;48.158;11.540;2023-06-14T06:13:49;18.40;48.80
1786;DHT22;890;48.158;11.540;2023-06-14T06:16:16;18.60;48.90
1786;DHT22;890;48.158;11.540;2023-06-14T06:18:41;18.70;48.70
1786;DHT22;890;48.158;11.540;2023-06-14T06:21:07;18.80;48.60
1786;DHT22;890;48.158;11.540;2023-06-14T06:23:32;19.00;48.80
1786;DHT22;890;48.158;11.540;2023-06-14T06:25:58;19.10;48.70
1786;DHT22;890;48.158;11.540;2023-06-14T06:28:23;19.20;48.70
1786;DHT22;890;48.158;11.540;2023-06-14T06:30:49;19.30;48.60
1786;DHT22;890;48.158;11.540;2023-06-14T06:33:15;19.40;48.40
1786;DHT22;890;48.158;11.540;2023-06-14T06:35:41;19.50;48.20
1786;DHT22;890;48.158;11.540;2023-06-14T06:38:08;19.60;48.30
1786;DHT22;890;48.158;11.540;2023-06-14T06:40:35;19.70;48.30
1786;DHT22;890;48.158;11.540;2023-06-14T06:43:02;19.80;47.90
1786;DHT22;890;48.158;11.540;2023-06-14T06:45:28;19.80;47.60
1786;DHT22;890;48.158;11.540;2023-06-14T06:47:54;19.80;47.40
1786;DHT22;890;48.158;11.540;2023-06-14T06:50:20;19.80;47.20
1786;DHT22;890;48.158;11.540;2023-06-14T06:52:48;19.70;47.30
1786;DHT22;890;48.158;11.540;2023-06-14T06:55:14;19.80;47.40
1786;DHT22;890;48.158;11.540;2023-06-14T06:57:40;19.80;47.00
1786;DHT22;890;48.158;11.540;2023-06-14T07:00:06;19.90;47.20
1786;DHT22;890;48.158;11.540;2023-06-14T07:02:36;19.90;47.10
1786;DHT22;890;48.158;11.540;2023-06-14T07:05:02;19.80;46.90
1786;DHT22;890;48.158;11.540;2023-06-14T07:07:27;19.80;46.80
1786;DHT22;890;48.158;11.540;2023-06-14T07:09:53;19.90;47.00
1786;DHT22;890;48.158;11.540;2023-06-14T07:12:18;20.00;47.10
1786;DHT22;890;48.158;11.540;2023-06-14T07:14:44;20.10;47.40
1786;DHT22;890;48.158;11.540;2023-06-14T07:17:10;20.20;47.40
1786;DHT22;890;48.158;11.540;2023-06-14T07:19:35;20.40;47.20
1786;DHT22;890;48.158;11.540;2023-06-14T07:22:01;20.60;47.20
1786;DHT22;890;48.158;11.540;2023-06-14T07:24:26;20.60;46.60
1786;DHT22;890;48.158;11.540;2023-06-14T07:26:53;20.50;46.30
1786;DHT22;890;48.158;11.540;2023-06-14T07:29:20;20.60;46.30
1786;DHT22;890;48.158;11.540;2023-06-14T07:31:46;20.60;46.10
1786;DHT22;890;48.158;11.540;2023-06-14T07:34:12;20.70;46.00
1786;DHT22;890;48.158;11.540;2023-06-14T07:36:38;20.60;45.90
1786;DHT22;890;48.158;11.540;2023-06-14T07:39:04;20.70;46.00
1786;DHT22;890;48.158;11.540;2023-06-14T07:41:31;20.80;46.10
1786;DHT22;890;48.158;11.540;2023-06-14T07:43:57;20.90;45.90
1786;DHT22;890;48.158;11.540;2023-06-14T07:46:22;21.10;45.90
1786;DHT22;890;48.158;11.540;2023-06-14T07:48:48;21.30;45.90
1786;DHT22;890;48.158;11.540;2023-06-14T07:51:14;21.40;45.80
1786;DHT22;890;48.158;11.540;2023-06-14T07:53:39;21.60;45.70
1786;DHT22;890;48.158;11.540;2023-06-14T07:56:06;21.70;45.60
1786;DHT22;890;48.158;11.540;2023-06-14T07:58:32;21.80;45.10
1786;DHT22;890;48.158;11.540;2023-06-14T08:00:57;21.80;44.60
1786;DHT22;890;48.158;11.540;2023-06-14T08:03:23;21.90;44.50
1786;DHT22;890;48.158;11.540;2023-06-14T08:05:49;21.90;44.40
1786;DHT22;890;48.158;11.540;2023-06-14T08:08:15;22.00;44.30
1786;DHT22;890;48.158;11.540;2023-06-14T08:10:41;22.00;44.20
1786;DHT22;890;48.158;11.540;2023-06-14T08:13:07;22.10;44.00
1786;DHT22;890;48.158;11.540;2023-06-14T08:15:34;22.20;44.00
1786;DHT22;890;48.158;11.540;2023-06-14T08:18:00;22.30;43.70
1786;DHT22;890;48.158;11.540;2023-06-14T08:20:26;22.30;43.30
1786;DHT22;890;48.158;11.540;2023-06-14T08:22:52;22.50;43.00
1786;DHT22;890;48.158;11.540;2023-06-14T08:25:20;22.50;42.70
1786;DHT22;890;48.158;11.540;2023-06-14T08:27:46;22.50;42.60
1786;DHT22;890;48.158;11.540;2023-06-14T08:30:12;22.60;42.30
1786;DHT22;890;48.158;11.540;2023-06-14T08:32:38;22.60;42.10
1786;DHT22;890;48.158;11.540;2023-06-14T08:35:04;22.70;42.10
1786;DHT22;890;48.158;11.540;2023-06-14T08:37:31;22.80;41.90
1786;DHT22;890;48.158;11.540;2023-06-14T08:39:56;22.70;41.80
1786;DHT22;890;48.158;11.540;2023-06-14T08:42:24;22.80;41.20
1786;DHT22;890;48.158;11.540;2023-06-14T08:44:50;22.90;41.30
1786;DHT22;890;48.158;11.540;2023-06-14T08:47:15;22.90;41.00
1786;DHT22;890;48.158;11.540;2023-06-14T08:49:46;23.00;40.80
1786;DHT22;890;48.158;11.540;2023-06-14T08:52:13;23.00;40.60
1786;DHT22;890;48.158;11.540;2023-06-14T08:54:41;23.00;40.50
1786;DHT22;890;48.158;11.540;2023-06-14T08:57:11;23.00;40.10
1786;DHT22;890;48.158;11.540;2023-06-14T08:59:39;22.90;40.10
1786;DHT22;890;48.158;11.540;2023-06-14T09:02:10;23.10;40.20
1786;DHT22;890;48.158;11.540;2023-06-14T09:04:39;23.20;39.60
1786;DHT22;890;48.158;11.540;2023-06-14T09:07:06;23.30;39.70
1786;DHT22;890;48.158;11.540;2023-06-14T09:09:32;23.50;39.80
1786;DHT22;890;48.158;11.540;2023-06-14T09:11:58;23.60;39.60
1786;DHT22;890;48.158;11.540;2023-06-14T09:14:24;23.60;39.40
1786;DHT22;890;48.158;11.540;2023-06-14T09:16:56;23.60;39.20
1786;DHT22;890;48.158;11.540;2023-06-14T09:19:23;23.60;39.40
1786;DHT22;890;48.158;11.540;2023-06-14T09:21:50;23.80;39.40
1786;DHT22;890;48.158;11.540;2023-06-14T09:24:18;23.80;39.00
1786;DHT22;890;48.158;11.540;2023-06-14T09:26:46;23.80;38.80
1786;DHT22;890;48.158;11.540;2023-06-14T09:29:12;23.80;38.60
1786;DHT22;890;48.158;11.540;2023-06-14T09:31:38;23.80;38.80
1786;DHT22;890;48.158;11.540;2023-06-14T09:34:03;23.90;39.20
1786;DHT22;890;48.158;11.540;2023-06-14T09:36:31;23.90;39.10
1786;DHT22;890;48.158;11.540;2023-06-14T09:38:58;23.90;38.70
1786;DHT22;890;48.158;11.540;2023-06-14T09:41:35;23.90;38.90
1786;DHT22;890;48.158;11.540;2023-06-14T09:44:02;24.00;38.50
1786;DHT22;890;48.158;11.540;2023-06-14T09:46:29;24.00;39.10
1786;DHT22;890;48.158;11.540;2023-06-14T09:48:58;24.10;38.60
1786;DHT22;890;48.158;11.540;2023-06-14T09:51:25;24.30;38.00
1786;DHT22;890;48.158;11.540;2023-06-14T09:53:52;24.30;37.90
1786;DHT22;890;48.158;11.540;2023-06-14T09:56:26;24.40;37.90
1786;DHT22;890;48.158;11.540;2023-06-14T09:58:56;24.60;38.10
1786;DHT22;890;48.158;11.540;2023-06-14T10:01:23;24.80;37.80
1786;DHT22;890;48.158;11.540;2023-06-14T10:03:51;25.10;37.90
1786;DHT22;890;48.158;11.540;2023-06-14T10:06:21;25.50;41.00
1786;DHT22;890;48.158;11.540;2023-06-14T10:08:50;26.40;41.50
1786;DHT22;890;48.158;11.540;2023-06-14T10:11:17;27.50;40.40
1786;DHT22;890;48.158;11.540;2023-06-14T10:13:43;28.40;39.50
1786;DHT22;890;48.158;11.540;2023-06-14T10:16:15;29.30;38.60
1786;DHT22;890;48.158;11.540;2023-06-14T10:19:11;29.90;36.50
1786;DHT22;890;48.158;11.540;2023-06-14T10:24:08;30.90;34.70
1786;DHT22;890;48.158;11.540;2023-06-14T10:26:51;31.10;33.80
1786;DHT22;890;48.158;11.540;2023-06-14T10:29:17;31.00;32.70
1786;DHT22;890;48.158;11.540;2023-06-14T10:31:45;30.50;31.30
1786;DHT22;890;48.158;11.540;2023-06-14T10:34:31;29.10;30.90
1786;DHT22;890;48.158;11.540;2023-06-14T10:37:06;28.00;31.30
1786;DHT22;890;48.158;11.540;2023-06-14T10:39:38;27.80;33.30
1786;DHT22;890;48.158;11.540;2023-06-14T10:42:05;28.30;34.90
1786;DHT22;890;48.158;11.540;2023-06-14T10:47:07;29.70;34.40
1786;DHT22;890;48.158;11.540;2023-06-14T10:49:42;30.50;33.60
1786;DHT22;890;48.158;11.540;2023-06-14T10:52:13;31.10;32.50
1786;DHT22;890;48.158;11.540;2023-06-14T10:55:05;31.60;32.40
1786;DHT22;890;48.158;11.540;2023-06-14T10:57:35;31.80;31.50
1786;DHT22;890;48.158;11.540;2023-06-14T11:00:02;32.10;31.20
1786;DHT22;890;48.158;11.540;2023-06-14T11:09:05;32.30;30.10
1786;DHT22;890;48.158;11.540;2023-06-14T11:11:38;32.50;29.90
1786;DHT22;890;48.158;11.540;2023-06-14T11:14:04;32.60;29.50
1786;DHT22;890;48.158;11.540;2023-06-14T11:16:30;32.40;29.20
1786;DHT22;890;48.158;11.540;2023-06-14T11:19:00;32.40;29.30
1786;DHT22;890;48.158;11.540;2023-06-14T11:21:27;32.30;29.40
1786;DHT22;890;48.158;11.540;2023-06-14T11:23:56;32.60;29.00
1786;DHT22;890;48.158;11.540;2023-06-14T11:26:29;32.80;28.40
1786;DHT22;890;48.158;11.540;2023-06-14T11:28:59;32.70;28.10
1786;DHT22;890;48.158;11.540;2023-06-14T11:31:26;32.90;28.00
1786;DHT22;890;48.158;11.540;2023-06-14T11:33:56;33.10;27.60
1786;DHT22;890;48.158;11.540;2023-06-14T11:36:23;33.00;27.20
1786;DHT22;890;48.158;11.540;2023-06-14T11:38:58;33.20;27.00
1786;DHT22;890;48.158;11.540;2023-06-14T11:41:24;33.40;26.70
1786;DHT22;890;48.158;11.540;2023-06-14T11:43:53;33.70;26.40
1786;DHT22;890;48.158;11.540;2023-06-14T11:46:19;33.80;26.10
1786;DHT22;890;48.158;11.540;2023-06-14T11:48:49;33.60;25.70
1786;DHT22;890;48.158;11.540;2023-06-14T11:51:15;33.40;25.70
1786;DHT22;890;48.158;11.540;2023-06-14T11:53:42;33.40;25.80
1786;DHT22;890;48.158;11.540;2023-06-14T11:56:08;33.50;25.50
1786;DHT22;890;48.158;11.540;2023-06-14T11:58:34;33.90;25.60
1786;DHT22;890;48.158;11.540;2023-06-14T12:01:00;34.00;25.30
1786;DHT22;890;48.158;11.540;2023-06-14T12:03:26;34.10;25.00
1786;DHT22;890;48.158;11.540;2023-06-14T12:06:07;34.50;24.80
1786;DHT22;890;48.158;11.540;2023-06-14T12:08:37;34.10;24.60
1786;DHT22;890;48.158;11.540;2023-06-14T12:11:11;34.10;24.60
1786;DHT22;890;48.158;11.540;2023-06-14T12:13:39;34.10;24.40
1786;DHT22;890;48.158;11.540;2023-06-14T12:16:08;34.30;24.40
1786;DHT22;890;48.158;11.540;2023-06-14T12:18:35;33.90;24.70
1786;DHT22;890;48.158;11.540;2023-06-14T12:21:06;33.90;24.50
1786;DHT22;890;48.158;11.540;2023-06-14T12:23:58;33.80;23.90
1786;DHT22;890;48.158;11.540;2023-06-14T12:26:24;33.10;24.20
1786;DHT22;890;48.158;11.540;2023-06-14T12:28:52;33.10;24.40
1786;DHT22;890;48.158;11.540;2023-06-14T12:31:17;32.60;24.40
1786;DHT22;890;48.158;11.540;2023-06-14T12:33:44;31.60;24.60
1786;DHT22;890;48.158;11.540;2023-06-14T12:36:11;30.30;25.00
1786;DHT22;890;48.158;11.540;2023-06-14T12:38:37;29.60;25.40
1786;DHT22;890;48.158;11.540;2023-06-14T12:41:03;29.10;25.80
1786;DHT22;890;48.158;11.540;2023-06-14T12:43:29;28.60;26.10
1786;DHT22;890;48.158;11.540;2023-06-14T12:45:54;28.30;26.40
1786;DHT22;890;48.158;11.540;2023-06-14T12:48:20;28.50;26.70
1786;DHT22;890;48.158;11.540;2023-06-14T12:50:47;28.70;27.00
1786;DHT22;890;48.158;11.540;2023-06-14T12:53:12;29.10;27.10
1786;DHT22;890;48.158;11.540;2023-06-14T12:55:38;29.30;27.00
1786;DHT22;890;48.158;11.540;2023-06-14T12:58:04;29.00;27.20
1786;DHT22;890;48.158;11.540;2023-06-14T13:00:30;28.80;27.40
1786;DHT22;890;48.158;11.540;2023-06-14T13:02:56;28.40;27.40
1786;DHT22;890;48.158;11.540;2023-06-14T13:05:22;28.10;27.60
1786;DHT22;890;48.158;11.540;2023-06-14T13:07:48;27.80;27.70
1786;DHT22;890;48.158;11.540;2023-06-14T13:10:14;27.80;28.00
1786;DHT22;890;48.158;11.540;2023-06-14T13:12:40;27.70;27.90
1786;DHT22;890;48.158;11.540;2023-06-14T13:15:06;27.60;28.00
1786;DHT22;890;48.158;11.540;2023-06-14T13:17:33;29.00;28.70
1786;DHT22;890;48.158;11.540;2023-06-14T13:20:05;27.30;28.00
1786;DHT22;890;48.158;11.540;2023-06-14T13:22:30;27.30;28.30
1786;DHT22;890;48.158;11.540;2023-06-14T13:24:56;27.20;28.50
1786;DHT22;890;48.158;11.540;2023-06-14T13:27:21;27.00;28.60
1786;DHT22;890;48.158;11.540;2023-06-14T13:29:49;27.10;28.70
1786;DHT22;890;48.158;11.540;2023-06-14T13:32:14;27.10;28.70
1786;DHT22;890;48.158;11.540;2023-06-14T13:34:40;27.10;28.60
1786;DHT22;890;48.158;11.540;2023-06-14T13:37:06;27.10;28.70
1786;DHT22;890;48.158;11.540;2023-06-14T13:39:31;27.30;28.50
1786;DHT22;890;48.158;11.540;2023-06-14T13:41:57;27.30;28.30
1786;DHT22;890;48.158;11.540;2023-06-14T13:44:22;27.30;28.30
1786;DHT22;890;48.158;11.540;2023-06-14T13:46:48;27.20;28.40
1786;DHT22;890;48.158;11.540;2023-06-14T13:49:14;27.10;28.50
1786;DHT22;890;48.158;11.540;2023-06-14T13:51:39;26.90;28.90
1786;DHT22;890;48.158;11.540;2023-06-14T13:54:05;26.60;29.20
1786;DHT22;890;48.158;11.540;2023-06-14T13:56:30;26.50;29.50
1786;DHT22;890;48.158;11.540;2023-06-14T13:58:56;26.30;29.60
1786;DHT22;890;48.158;11.540;2023-06-14T14:01:22;26.20;29.60
1786;DHT22;890;48.158;11.540;2023-06-14T14:03:48;26.20;29.60
1786;DHT22;890;48.158;11.540;2023-06-14T14:06:15;26.20;29.50
1786;DHT22;890;48.158;11.540;2023-06-14T14:08:41;26.30;29.40
1786;DHT22;890;48.158;11.540;2023-06-14T14:11:07;26.20;29.30
1786;DHT22;890;48.158;11.540;2023-06-14T14:13:34;26.20;29.30
1786;DHT22;890;48.158;11.540;2023-06-14T14:16:02;26.00;29.50
1786;DHT22;890;48.158;11.540;2023-06-14T14:18:28;25.80;29.60
1786;DHT22;890;48.158;11.540;2023-06-14T14:20:54;25.70;29.60
1786;DHT22;890;48.158;11.540;2023-06-14T14:23:21;25.60;29.80
1786;DHT22;890;48.158;11.540;2023-06-14T14:25:47;25.60;30.00
1786;DHT22;890;48.158;11.540;2023-06-14T14:28:13;25.60;30.00
1786;DHT22;890;48.158;11.540;2023-06-14T14:30:41;25.60;30.20
1786;DHT22;890;48.158;11.540;2023-06-14T14:33:07;25.50;30.30
1786;DHT22;890;48.158;11.540;2023-06-14T14:35:33;25.50;30.30
1786;DHT22;890;48.158;11.540;2023-06-14T14:37:58;25.30;30.50
1786;DHT22;890;48.158;11.540;2023-06-14T14:40:24;25.30;30.70
1786;DHT22;890;48.158;11.540;2023-06-14T14:42:50;25.20;30.60
1786;DHT22;890;48.158;11.540;2023-06-14T14:45:15;25.30;30.60
1786;DHT22;890;48.158;11.540;2023-06-14T14:47:41;25.30;30.60
1786;DHT22;890;48.158;11.540;2023-06-14T14:50:07;25.30;30.50
1786;DHT22;890;48.158;11.540;2023-06-14T14:52:35;25.40;30.50
1786;DHT22;890;48.158;11.540;2023-06-14T14:55:00;25.50;30.60
1786;DHT22;890;48.158;11.540;2023-06-14T14:57:26;25.60;30.80
1786;DHT22;890;48.158;11.540;2023-06-14T14:59:52;25.50;31.00
1786;DHT22;890;48.158;11.540;2023-06-14T15:02:18;25.40;31.10
1786;DHT22;890;48.158;11.540;2023-06-14T15:04:45;25.40;31.30
1786;DHT22;890;48.158;11.540;2023-06-14T15:07:11;25.50;31.50
1786;DHT22;890;48.158;11.540;2023-06-14T15:09:36;25.40;31.30
1786;DHT22;890;48.158;11.540;2023-06-14T15:12:02;25.30;31.40
1786;DHT22;890;48.158;11.540;2023-06-14T15:14:28;25.30;32.20
1786;DHT22;890;48.158;11.540;2023-06-14T15:16:53;25.40;31.50
1786;DHT22;890;48.158;11.540;2023-06-14T15:19:19;25.40;31.60
1786;DHT22;890;48.158;11.540;2023-06-14T15:21:45;25.50;31.60
1786;DHT22;890;48.158;11.540;2023-06-14T15:24:10;25.50;31.70
1786;DHT22;890;48.158;11.540;2023-06-14T15:26:36;25.30;31.50
1786;DHT22;890;48.158;11.540;2023-06-14T15:29:01;25.30;31.60
1786;DHT22;890;48.158;11.540;2023-06-14T15:31:27;25.30;31.60
1786;DHT22;890;48.158;11.540;2023-06-14T15:33:54;25.30;31.60
1786;DHT22;890;48.158;11.540;2023-06-14T15:36:20;25.20;31.70
1786;DHT22;890;48.158;11.540;2023-06-14T15:38:45;25.20;31.80
1786;DHT22;890;48.158;11.540;2023-06-14T15:41:11;25.10;31.70
1786;DHT22;890;48.158;11.540;2023-06-14T15:43:37;25.10;31.80
1786;DHT22;890;48.158;11.540;2023-06-14T15:46:02;25.00;31.80
1786;DHT22;890;48.158;11.540;2023-06-14T15:48:28;24.80;31.70
1786;DHT22;890;48.158;11.540;2023-06-14T15:50:53;24.70;31.70
1786;DHT22;890;48.158;11.540;2023-06-14T15:53:19;24.60;32.40
1786;DHT22;890;48.158;11.540;2023-06-14T15:55:45;24.60;31.90
1786;DHT22;890;48.158;11.540;2023-06-14T15:58:11;24.50;31.90
1786;DHT22;890;48.158;11.540;2023-06-14T16:00:37;24.60;32.20
1786;DHT22;890;48.158;11.540;2023-06-14T16:03:03;24.70;32.10
1786;DHT22;890;48.158;11.540;2023-06-14T16:05:28;24.80;32.20
1786;DHT22;890;48.158;11.540;2023-06-14T16:07:54;25.00;32.30
1786;DHT22;890;48.158;11.540;2023-06-14T16:10:20;25.10;32.50
1786;DHT22;890;48.158;11.540;2023-06-14T16:12:45;25.20;32.60
1786;DHT22;890;48.158;11.540;2023-06-14T16:15:11;25.20;32.60